createdAt,value
2023-04-21T00:00:26.041Z,58.38
2023-04-21T00:02:53.747Z,58.78
2023-04-21T00:05:21.584Z,58.87
2023-04-21T00:07:49.376Z,58.41
2023-04-21T00:10:16.993Z,58.99
2023-04-21T00:12:44.483Z,58.97
2023-04-21T00:15:12.826Z,58.89
2023-04-21T00:17:40.777Z,59.13
2023-04-21T00:20:10.720Z,58.82
2023-04-21T00:22:38.612Z,59.06
2023-04-21T00:25:06.973Z,59.63
2023-04-21T00:27:34.824Z,59.66
2023-04-21T00:30:02.684Z,59.70
2023-04-21T00:32:31.062Z,60.03
2023-04-21T00:34:58.926Z,60.40
2023-04-21T00:37:31.100Z,60.96
2023-04-21T00:40:00.366Z,60.89
2023-04-21T00:42:27.847Z,60.61
2023-04-21T00:44:55.560Z,60.33
2023-04-21T00:47:23.215Z,60.43
2023-04-21T00:49:52.425Z,61.53
2023-04-21T00:52:20.027Z,61.83
2023-04-21T00:54:47.543Z,62.17
2023-04-21T00:57:15.357Z,61.70
2023-04-21T00:59:43.503Z,61.51
2023-04-21T01:02:11.334Z,61.74
2023-04-21T01:04:40.268Z,62.24
2023-04-21T01:07:08.697Z,62.65
2023-04-21T01:09:36.509Z,62.44
2023-04-21T01:12:09.388Z,62.45
2023-04-21T01:14:38.872Z,62.61
2023-04-21T01:17:07.938Z,62.53
2023-04-21T01:19:40.054Z,63.17
2023-04-21T01:22:12.375Z,63.41
2023-04-21T01:24:45.725Z,63.69
2023-04-21T01:27:16.561Z,63.87
2023-04-21T01:29:46.907Z,64.41
2023-04-21T01:32:18.336Z,64.47
2023-04-21T01:34:46.816Z,64.26
2023-04-21T01:37:17.418Z,64.85
2023-04-21T01:39:48.262Z,64.85
2023-04-21T01:42:16.033Z,64.38
2023-04-21T01:44:43.896Z,65.25
2023-04-21T01:47:11.602Z,64.81
2023-04-21T01:49:39.381Z,65.49
2023-04-21T01:52:07.123Z,66.08
2023-04-21T01:54:35.426Z,66.30
2023-04-21T01:57:03.722Z,66.00
2023-04-21T01:59:31.496Z,65.90
2023-04-21T02:01:59.288Z,66.24
2023-04-21T02:04:26.953Z,66.28
2023-04-21T02:06:54.511Z,66.61
2023-04-21T02:09:22.394Z,66.98
2023-04-21T02:11:50.306Z,66.68
2023-04-21T02:14:17.969Z,66.75
2023-04-21T02:16:46.149Z,67.62
2023-04-21T02:19:13.873Z,67.48
2023-04-21T02:21:41.405Z,67.70
2023-04-21T02:24:09.010Z,68.06
2023-04-21T02:26:36.479Z,68.44
2023-04-21T02:29:04.008Z,69.00
2023-04-21T02:31:31.582Z,69.28
2023-04-21T02:34:00.210Z,68.52
2023-04-21T02:36:27.865Z,69.67
2023-04-21T02:38:55.316Z,69.01
2023-04-21T02:41:23.379Z,68.66
2023-04-21T02:43:50.934Z,69.25
2023-04-21T02:46:18.710Z,69.96
2023-04-21T02:48:46.468Z,70.19
2023-04-21T02:51:14.733Z,70.43
2023-04-21T02:53:43.060Z,70.32
2023-04-21T02:56:10.650Z,70.16
2023-04-21T02:58:38.469Z,70.18
2023-04-21T03:01:06.550Z,70.35
2023-04-21T03:03:34.763Z,70.13
2023-04-21T03:06:04.298Z,70.42
2023-04-21T03:08:32.509Z,70.67
2023-04-21T03:11:01.641Z,71.42
2023-04-21T03:13:29.493Z,71.69
2023-04-21T03:15:57.599Z,71.95
2023-04-21T03:18:25.864Z,71.28
2023-04-21T03:20:59.906Z,71.85
2023-04-21T03:23:27.640Z,71.67
2023-04-21T03:25:55.354Z,71.88
2023-04-21T03:28:22.828Z,71.65
2023-04-21T03:30:50.326Z,71.36
2023-04-21T03:33:17.804Z,71.80
2023-04-21T03:35:45.371Z,72.07
2023-04-21T03:38:12.834Z,72.30
2023-04-21T03:40:40.350Z,72.17
2023-04-21T03:43:08.142Z,72.56
2023-04-21T03:45:36.257Z,73.19
2023-04-21T03:48:04.198Z,73.19
2023-04-21T03:50:32.149Z,74.66
2023-04-21T03:52:59.974Z,74.36
2023-04-21T03:55:27.646Z,74.65
2023-04-21T03:57:55.530Z,74.84
2023-04-21T04:00:23.410Z,74.74
2023-04-21T04:02:51.104Z,73.95
2023-04-21T04:05:18.741Z,74.65
2023-04-21T04:07:46.546Z,74.31
2023-04-21T04:10:14.365Z,74.81
2023-04-21T04:12:41.815Z,75.07
2023-04-21T04:15:09.563Z,75.06
2023-04-21T04:17:37.031Z,75.21
2023-04-21T04:20:08.384Z,75.12
2023-04-21T04:22:36.258Z,75.27
2023-04-21T04:25:05.401Z,75.28
2023-04-21T04:27:33.269Z,76.12
2023-04-21T04:30:03.268Z,75.90
2023-04-21T04:32:33.648Z,76.17
2023-04-21T04:35:01.418Z,75.96
2023-04-21T04:37:29.198Z,76.96
2023-04-21T04:39:57.025Z,76.32
2023-04-21T04:42:25.265Z,77.01
2023-04-21T04:44:56.065Z,76.63
2023-04-21T04:47:29.056Z,76.99
2023-04-21T04:49:56.972Z,77.24
2023-04-21T04:52:24.467Z,77.35
2023-04-21T04:54:51.982Z,77.23
2023-04-21T04:57:19.476Z,76.51
2023-04-21T04:59:47.142Z,76.24
2023-04-21T05:02:15.095Z,75.57
2023-04-21T05:04:42.935Z,74.84
2023-04-21T05:07:10.795Z,74.56
2023-04-21T05:09:38.684Z,74.64
2023-04-21T05:12:06.716Z,73.95
2023-04-21T05:14:34.325Z,73.82
2023-04-21T05:17:01.870Z,73.35
2023-04-21T05:19:29.386Z,72.72
2023-04-21T05:22:01.289Z,72.94
2023-04-21T05:24:29.163Z,71.80
2023-04-21T05:26:57.879Z,70.85
2023-04-21T05:29:25.670Z,69.95
2023-04-21T05:31:53.499Z,69.49
2023-04-21T05:34:21.747Z,69.16
2023-04-21T05:36:49.466Z,68.76
2023-04-21T05:39:18.062Z,68.49
2023-04-21T05:41:46.279Z,68.13
2023-04-21T05:44:18.039Z,67.21
2023-04-21T05:46:45.938Z,67.23
2023-04-21T05:49:13.525Z,66.56
2023-04-21T05:51:41.698Z,65.52
2023-04-21T05:54:09.404Z,65.20
2023-04-21T05:56:36.888Z,64.41
2023-04-21T05:59:04.447Z,63.99
2023-04-21T06:01:33.209Z,63.15
2023-04-21T06:04:01.064Z,62.88
2023-04-21T06:06:28.807Z,62.34
2023-04-21T06:08:56.347Z,62.05
2023-04-21T06:11:24.013Z,61.41
2023-04-21T06:13:53.785Z,60.36
2023-04-21T06:16:21.339Z,59.04
2023-04-21T06:18:49.211Z,56.70
2023-04-21T06:21:17.001Z,56.46
2023-04-21T06:23:44.901Z,54.75
2023-04-21T06:26:13.802Z,51.32
2023-04-21T06:28:41.416Z,46.76
2023-04-21T06:31:15.264Z,38.70
2023-04-21T06:33:42.992Z,32.62
2023-04-21T06:36:10.794Z,32.10
2023-04-21T06:38:40.083Z,34.21
2023-04-21T06:41:07.871Z,39.53
2023-04-21T06:43:35.835Z,42.20
2023-04-21T06:46:03.746Z,41.16
2023-04-21T06:48:31.879Z,35.15
2023-04-21T06:51:00.570Z,38.19
2023-04-21T06:53:28.240Z,40.17
2023-04-21T06:55:56.372Z,37.14
2023-04-21T06:58:24.089Z,30.87
2023-04-21T07:00:51.918Z,29.55
2023-04-21T07:03:19.883Z,27.41
2023-04-21T07:05:47.839Z,26.26
2023-04-21T07:08:15.644Z,26.60
2023-04-21T07:10:43.388Z,29.47
2023-04-21T07:13:11.411Z,32.69
2023-04-21T07:15:38.954Z,32.12
2023-04-21T07:18:06.737Z,26.62
2023-04-21T07:20:34.246Z,25.64
2023-04-21T07:23:01.793Z,24.81
2023-04-21T07:25:29.443Z,23.63
2023-04-21T07:27:57.234Z,23.00
2023-04-21T07:30:25.244Z,22.47
2023-04-21T07:32:53.116Z,22.43
2023-04-21T07:35:21.556Z,22.56
2023-04-21T07:37:49.309Z,22.76
2023-04-21T07:40:17.376Z,21.95
2023-04-21T07:42:45.210Z,22.53
2023-04-21T07:45:12.888Z,22.48
2023-04-21T07:47:40.917Z,22.07
2023-04-21T07:50:09.386Z,21.23
2023-04-21T07:52:37.244Z,22.06
2023-04-21T07:55:05.336Z,21.42
2023-04-21T07:57:34.605Z,21.18
2023-04-21T08:00:02.186Z,21.79
2023-04-21T08:02:30.073Z,22.33
2023-04-21T08:04:57.802Z,23.02
2023-04-21T08:07:25.478Z,22.54
2023-04-21T08:09:53.543Z,23.11
2023-04-21T08:12:21.115Z,22.47
2023-04-21T08:14:48.785Z,24.27
2023-04-21T08:17:16.729Z,25.61
2023-04-21T08:19:44.547Z,28.92
2023-04-21T08:22:12.345Z,31.80
2023-04-21T08:24:40.196Z,33.69
2023-04-21T08:27:07.742Z,36.13
2023-04-21T08:29:35.712Z,37.65
2023-04-21T08:32:03.689Z,38.76
2023-04-21T08:34:31.566Z,39.58
2023-04-21T08:36:59.283Z,40.21
2023-04-21T08:39:26.981Z,41.07
2023-04-21T08:41:56.510Z,41.42
2023-04-21T08:44:24.402Z,41.64
2023-04-21T08:46:55.724Z,42.12
2023-04-21T08:49:24.530Z,42.90
2023-04-21T08:51:52.305Z,42.74
2023-04-21T08:54:20.929Z,42.93
2023-04-21T08:56:49.504Z,43.08
2023-04-21T08:59:17.490Z,43.46
2023-04-21T09:02:07.191Z,43.88
2023-04-21T09:04:35.077Z,44.17
2023-04-21T09:07:03.032Z,44.36
2023-04-21T09:09:30.859Z,44.32
2023-04-21T09:11:59.434Z,44.96
2023-04-21T09:14:33.970Z,45.39
2023-04-21T09:17:04.366Z,45.59
2023-04-21T09:19:34.787Z,45.80
2023-04-21T09:22:02.870Z,46.28
2023-04-21T09:24:30.890Z,46.87
2023-04-21T09:26:58.513Z,46.55
2023-04-21T09:29:26.428Z,46.83
2023-04-21T09:31:53.950Z,46.63
2023-04-21T09:34:27.396Z,47.00
2023-04-21T09:37:05.200Z,46.86
2023-04-21T09:39:46.377Z,47.07
2023-04-21T09:42:28.232Z,47.12
2023-04-21T09:45:06.134Z,47.22
2023-04-21T09:47:49.356Z,47.27
2023-04-21T09:50:22.932Z,47.87
2023-04-21T09:53:08.017Z,47.59
2023-04-21T09:55:36.313Z,47.79
2023-04-21T09:58:07.190Z,48.46
2023-04-21T10:00:39.434Z,48.36
2023-04-21T10:03:11.464Z,48.28
2023-04-21T10:05:42.093Z,48.29
2023-04-21T10:08:12.105Z,48.19
2023-04-21T10:10:40.130Z,48.06
2023-04-21T10:13:14.635Z,48.99
2023-04-21T10:15:42.278Z,48.68
2023-04-21T10:18:19.296Z,48.82
2023-04-21T10:21:02.838Z,49.41
2023-04-21T10:23:37.564Z,49.16
2023-04-21T10:26:13.083Z,49.05
2023-04-21T10:28:54.862Z,49.65
2023-04-21T10:31:35.855Z,49.59
2023-04-21T10:34:06.272Z,49.82
2023-04-21T10:36:48.721Z,49.86
2023-04-21T10:39:44.545Z,49.95
2023-04-21T10:42:19.886Z,50.19
2023-04-21T10:44:56.152Z,50.09
2023-04-21T10:47:38.676Z,50.28
2023-04-21T10:50:28.715Z,50.64
2023-04-21T10:52:59.515Z,50.40
2023-04-21T10:55:29.100Z,50.67
2023-04-21T10:57:57.227Z,50.47
2023-04-21T11:00:25.492Z,50.25
2023-04-21T11:02:56.063Z,50.58
2023-04-21T11:05:38.876Z,50.54
2023-04-21T11:08:14.728Z,50.91
2023-04-21T11:10:55.112Z,50.81
2023-04-21T11:13:25.883Z,50.89
2023-04-21T11:15:57.887Z,50.70
2023-04-21T11:18:44.452Z,51.26
2023-04-21T11:21:12.423Z,50.86
2023-04-21T11:23:41.548Z,50.95
2023-04-21T11:26:09.214Z,51.20
2023-04-21T11:28:37.110Z,51.04
2023-04-21T11:31:05.465Z,51.21
2023-04-21T11:33:39.483Z,51.26
2023-04-21T11:36:07.753Z,50.93
2023-04-21T11:38:41.871Z,51.06
2023-04-21T11:41:10.732Z,51.48
2023-04-21T11:43:38.601Z,51.41
2023-04-21T11:46:37.296Z,51.77
2023-04-21T11:49:07.201Z,51.40
2023-04-21T11:51:38.784Z,52.16
2023-04-21T11:54:11.557Z,52.09
2023-04-21T11:56:46.517Z,52.55
2023-04-21T11:59:16.657Z,52.77
2023-04-21T12:01:50.663Z,51.80
2023-04-21T12:04:26.012Z,51.59
2023-04-21T12:07:03.378Z,51.83
2023-04-21T12:09:30.933Z,52.25
2023-04-21T12:11:59.113Z,52.90
2023-04-21T12:14:27.125Z,52.38
2023-04-21T12:16:56.236Z,51.66
2023-04-21T12:19:41.297Z,51.38
2023-04-21T12:22:14.597Z,51.33
2023-04-21T12:24:43.390Z,51.26
2023-04-21T12:27:11.606Z,50.64
2023-04-21T12:29:39.850Z,48.46
2023-04-21T12:32:09.456Z,46.59
2023-04-21T12:34:37.353Z,45.62
2023-04-21T12:37:05.129Z,45.68
2023-04-21T12:39:34.970Z,45.70
2023-04-21T12:42:02.865Z,44.78
2023-04-21T12:44:30.799Z,44.47
2023-04-21T12:46:58.499Z,44.32
2023-04-21T12:49:26.559Z,45.13
2023-04-21T12:51:54.118Z,46.70
2023-04-21T12:54:21.544Z,46.29
2023-04-21T12:56:49.170Z,46.43
2023-04-21T12:59:17.108Z,45.53
2023-04-21T13:01:45.049Z,45.20
2023-04-21T13:04:13.353Z,45.26
2023-04-21T13:06:41.491Z,44.33
2023-04-21T13:09:09.501Z,44.19
2023-04-21T13:11:37.347Z,44.02
2023-04-21T13:14:04.863Z,43.40
2023-04-21T13:16:32.530Z,44.10
2023-04-21T13:19:00.329Z,43.86
2023-04-21T13:21:28.072Z,43.70
2023-04-21T13:23:56.353Z,43.79
2023-04-21T13:26:23.962Z,43.71
2023-04-21T13:28:51.624Z,43.75
2023-04-21T13:31:19.308Z,43.49
2023-04-21T13:33:47.161Z,43.87
2023-04-21T13:36:15.078Z,43.65
2023-04-21T13:38:43.348Z,43.32
2023-04-21T13:41:11.264Z,43.42
2023-04-21T13:43:38.856Z,43.89
2023-04-21T13:46:06.503Z,44.04
2023-04-21T13:48:34.062Z,43.66
2023-04-21T13:51:01.635Z,43.24
2023-04-21T13:53:29.550Z,43.05
2023-04-21T13:55:58.389Z,42.91
2023-04-21T13:58:26.068Z,43.30
2023-04-21T14:00:53.897Z,43.00
2023-04-21T14:03:22.358Z,42.73
2023-04-21T14:05:49.980Z,42.82
2023-04-21T14:08:18.049Z,42.52
2023-04-21T14:10:45.740Z,42.98
2023-04-21T14:13:23.294Z,42.96
2023-04-21T14:16:01.032Z,43.02
2023-04-21T14:18:28.828Z,42.78
2023-04-21T14:20:56.296Z,42.45
2023-04-21T14:23:23.932Z,42.45
2023-04-21T14:25:53.089Z,42.79
2023-04-21T14:28:22.786Z,42.89
2023-04-21T14:30:50.539Z,43.16
2023-04-21T14:33:18.237Z,42.82
2023-04-21T14:35:46.077Z,42.87
2023-04-21T14:38:13.736Z,42.84
2023-04-21T14:40:41.195Z,43.03
2023-04-21T14:43:11.515Z,43.04
2023-04-21T14:45:41.154Z,43.52
2023-04-21T14:48:09.339Z,43.54
2023-04-21T14:50:37.350Z,43.64
2023-04-21T14:53:05.169Z,43.42
2023-04-21T14:55:33.562Z,43.27
2023-04-21T14:58:01.320Z,43.31
2023-04-21T15:00:31.856Z,43.47
2023-04-21T15:03:00.026Z,43.30
2023-04-21T15:05:27.960Z,43.50
2023-04-21T15:07:55.749Z,43.65
2023-04-21T15:10:23.607Z,43.04
2023-04-21T15:12:51.507Z,42.89
2023-04-21T15:15:19.428Z,43.02
2023-04-21T15:17:47.103Z,43.17
2023-04-21T15:20:14.853Z,43.47
2023-04-21T15:22:42.510Z,43.34
2023-04-21T15:25:10.489Z,43.49
2023-04-21T15:27:38.225Z,43.35
2023-04-21T15:30:06.935Z,43.25
2023-04-21T15:32:34.933Z,43.23
2023-04-21T15:35:02.561Z,43.40
2023-04-21T15:37:30.126Z,43.07
2023-04-21T15:39:58.031Z,43.20
2023-04-21T15:42:25.667Z,43.11
2023-04-21T15:44:53.811Z,42.73
2023-04-21T15:47:22.754Z,42.91
2023-04-21T15:49:50.893Z,42.71
2023-04-21T15:52:18.677Z,42.67
2023-04-21T15:54:46.645Z,42.92
2023-04-21T15:57:14.995Z,42.71
2023-04-21T15:59:42.739Z,42.44
2023-04-21T16:02:11.829Z,42.40
2023-04-21T16:04:40.358Z,41.57
2023-04-21T16:07:08.479Z,41.73
2023-04-21T16:09:36.597Z,41.77
2023-04-21T16:12:08.736Z,41.73
2023-04-21T16:14:51.250Z,41.55
2023-04-21T16:17:26.665Z,41.78
2023-04-21T16:19:54.698Z,42.04
2023-04-21T16:22:22.229Z,41.83
2023-04-21T16:24:50.003Z,42.05
2023-04-21T16:27:17.506Z,41.86
2023-04-21T16:29:45.246Z,42.21
2023-04-21T16:32:12.845Z,42.47
2023-04-21T16:34:41.605Z,42.11
2023-04-21T16:37:09.632Z,42.13
2023-04-21T16:39:38.369Z,41.61
2023-04-21T16:42:05.882Z,41.81
2023-04-21T16:44:33.458Z,41.52
2023-04-21T16:47:01.124Z,42.40
2023-04-21T16:49:30.341Z,42.13
2023-04-21T16:51:58.246Z,42.36
2023-04-21T16:54:26.106Z,41.39
2023-04-21T16:56:54.009Z,41.69
2023-04-21T16:59:23.709Z,41.40
2023-04-21T17:01:51.264Z,41.65
2023-04-21T17:04:19.035Z,41.72
2023-04-21T17:06:48.316Z,41.69
2023-04-21T17:09:16.159Z,42.21
2023-04-21T17:11:45.930Z,42.46
2023-04-21T17:14:13.907Z,42.96
2023-04-21T17:16:41.599Z,42.84
2023-04-21T17:19:09.753Z,43.27
2023-04-21T17:21:37.365Z,43.52
2023-04-21T17:24:04.952Z,43.05
2023-04-21T17:26:32.697Z,43.25
2023-04-21T17:29:00.457Z,43.60
2023-04-21T17:31:29.599Z,43.47
2023-04-21T17:33:57.394Z,43.74
2023-04-21T17:36:27.610Z,43.67
2023-04-21T17:38:59.144Z,44.31
2023-04-21T17:41:27.700Z,44.17
2023-04-21T17:43:55.301Z,43.95
2023-04-21T17:46:25.151Z,43.94
2023-04-21T17:48:53.760Z,44.21
2023-04-21T17:51:21.617Z,44.72
2023-04-21T17:53:49.993Z,44.62
2023-04-21T17:56:18.889Z,44.69
2023-04-21T17:58:46.925Z,45.21
2023-04-21T18:01:14.916Z,45.31
2023-04-21T18:03:43.807Z,45.79
2023-04-21T18:06:11.746Z,45.73
2023-04-21T18:08:39.306Z,46.56
2023-04-21T18:11:07.414Z,46.71
2023-04-21T18:13:35.230Z,47.26
2023-04-21T18:16:03.370Z,47.69
2023-04-21T18:18:31.344Z,48.51
2023-04-21T18:20:59.788Z,48.61
2023-04-21T18:23:27.713Z,48.93
2023-04-21T18:25:55.278Z,49.34
2023-04-21T18:28:22.894Z,49.35
2023-04-21T18:30:50.830Z,49.50
2023-04-21T18:33:18.773Z,49.67
2023-04-21T18:35:46.849Z,50.16
2023-04-21T18:38:14.389Z,49.96
2023-04-21T18:40:41.940Z,50.32
2023-04-21T18:43:10.737Z,50.64
2023-04-21T18:45:38.821Z,51.01
2023-04-21T18:48:06.516Z,51.32
2023-04-21T18:50:39.376Z,51.66
2023-04-21T18:53:08.586Z,51.85
2023-04-21T18:55:36.452Z,51.90
2023-04-21T18:58:04.315Z,52.58
2023-04-21T19:00:32.880Z,52.50
2023-04-21T19:03:01.171Z,52.95
2023-04-21T19:05:31.113Z,52.81
2023-04-21T19:07:59.149Z,52.85
2023-04-21T19:10:27.737Z,52.80
2023-04-21T19:12:55.811Z,53.40
2023-04-21T19:15:24.060Z,53.78
2023-04-21T19:17:52.004Z,53.92
2023-04-21T19:20:19.988Z,53.92
2023-04-21T19:22:48.917Z,53.77
2023-04-21T19:25:17.571Z,53.97
2023-04-21T19:27:46.389Z,54.07
2023-04-21T19:30:14.586Z,54.65
2023-04-21T19:32:43.125Z,55.13
2023-04-21T19:35:11.128Z,54.97
2023-04-21T19:37:39.391Z,55.00
2023-04-21T19:40:08.240Z,55.47
2023-04-21T19:42:37.361Z,55.54
2023-04-21T19:45:08.739Z,55.48
2023-04-21T19:47:36.357Z,55.92
2023-04-21T19:50:05.765Z,56.06
2023-04-21T19:52:34.036Z,56.94
2023-04-21T19:55:01.826Z,57.03
2023-04-21T19:57:29.283Z,57.09
2023-04-21T19:59:57.098Z,57.56
2023-04-21T20:02:26.253Z,57.72
2023-04-21T20:04:53.939Z,58.14
2023-04-21T20:07:22.570Z,58.24
2023-04-21T20:09:50.659Z,58.74
2023-04-21T20:12:18.834Z,59.19
2023-04-21T20:14:46.359Z,59.76
2023-04-21T20:17:14.147Z,59.52
2023-04-21T20:19:41.917Z,60.52
2023-04-21T20:22:09.756Z,60.86
2023-04-21T20:24:37.225Z,61.31
2023-04-21T20:27:08.540Z,60.57
2023-04-21T20:29:36.961Z,61.51
2023-04-21T20:32:05.037Z,61.73
2023-04-21T20:34:32.855Z,61.56
2023-04-21T20:37:00.735Z,61.57
2023-04-21T20:39:28.782Z,61.84
2023-04-21T20:42:11.904Z,62.68
2023-04-21T20:44:42.728Z,62.59
2023-04-21T20:47:12.082Z,62.50
2023-04-21T20:49:40.391Z,63.14
2023-04-21T20:52:09.231Z,63.21
2023-04-21T20:54:37.592Z,62.85
2023-04-21T20:57:07.392Z,63.73
2023-04-21T20:59:35.618Z,64.02
2023-04-21T21:02:04.231Z,64.70
2023-04-21T21:04:32.211Z,64.34
2023-04-21T21:07:01.366Z,64.48
2023-04-21T21:09:30.488Z,63.76
2023-04-21T21:11:58.383Z,64.24
2023-04-21T21:14:26.634Z,64.00
2023-04-21T21:16:55.333Z,63.96
2023-04-21T21:19:23.150Z,63.69
2023-04-21T21:21:50.996Z,64.39
2023-04-21T21:24:18.577Z,64.26
2023-04-21T21:26:46.196Z,64.50
2023-04-21T21:29:13.817Z,64.26
2023-04-21T21:31:41.318Z,64.84
2023-04-21T21:34:08.879Z,64.49
2023-04-21T21:36:36.787Z,65.09
2023-04-21T21:39:04.511Z,65.06
2023-04-21T21:41:32.403Z,64.92
2023-04-21T21:43:59.961Z,64.55
2023-04-21T21:46:27.511Z,66.01
2023-04-21T21:48:55.107Z,65.12
2023-04-21T21:51:22.975Z,65.21
2023-04-21T21:53:50.729Z,65.84
2023-04-21T21:56:18.472Z,65.98
2023-04-21T21:58:46.205Z,66.21
2023-04-21T22:01:17.922Z,66.03
2023-04-21T22:03:45.802Z,66.73
2023-04-21T22:06:14.903Z,66.67
2023-04-21T22:08:45.664Z,67.10
2023-04-21T22:11:13.414Z,66.90
2023-04-21T22:13:41.058Z,67.64
2023-04-21T22:16:08.645Z,67.80
2023-04-21T22:18:36.560Z,67.90
2023-04-21T22:21:04.626Z,68.37
2023-04-21T22:23:32.106Z,68.49
2023-04-21T22:25:59.734Z,68.22
2023-04-21T22:28:27.596Z,67.86
2023-04-21T22:30:56.064Z,68.84
2023-04-21T22:33:24.358Z,68.50
2023-04-21T22:35:51.883Z,68.33
2023-04-21T22:38:19.815Z,68.62
2023-04-21T22:40:47.688Z,68.51
2023-04-21T22:43:15.684Z,69.06
2023-04-21T22:45:43.610Z,69.00
2023-04-21T22:48:11.616Z,69.38
2023-04-21T22:50:39.494Z,69.62
2023-04-21T22:53:07.485Z,69.77
2023-04-21T22:55:35.624Z,69.99
2023-04-21T22:58:03.310Z,70.31
2023-04-21T23:00:30.880Z,70.24
2023-04-21T23:02:58.642Z,69.93
2023-04-21T23:05:26.398Z,70.21
2023-04-21T23:07:55.574Z,71.28
2023-04-21T23:10:23.210Z,71.36
2023-04-21T23:12:50.865Z,71.22
2023-04-21T23:15:18.472Z,71.21
2023-04-21T23:17:46.428Z,72.16
2023-04-21T23:20:15.373Z,71.74
2023-04-21T23:22:43.505Z,72.14
2023-04-21T23:25:11.095Z,72.38
2023-04-21T23:27:38.584Z,72.36
2023-04-21T23:30:07.223Z,72.34
2023-04-21T23:32:35.031Z,72.58
2023-04-21T23:35:02.618Z,72.60
2023-04-21T23:37:30.889Z,73.13
2023-04-21T23:39:58.897Z,73.06
2023-04-21T23:42:26.884Z,73.19
2023-04-21T23:44:54.923Z,72.94
2023-04-21T23:47:22.456Z,73.18
2023-04-21T23:49:50.528Z,74.30
2023-04-21T23:52:18.341Z,74.30
2023-04-21T23:54:46.337Z,74.22
2023-04-21T23:57:14.453Z,74.57
2023-04-21T23:59:42.671Z,75.04
